Time,TemperatureF,DewpointF,PressureIn,WindDirection,WindDirectionDegrees,WindSpeedMPH,WindSpeedGustMPH,Humidity,HourlyPrecipIn,Conditions,Clouds,dailyrainin,SoftwareType,DateUTC
2013-06-14 00:12:00,51.9,51.0,29.76,NE,39,0.0,0.0,97,0.03,,,0.01,weatherlink.com 1.10,2013-06-14 04:12:00,
2013-06-14 00:27:00,51.9,51.0,29.76,NE,38,0.0,0.0,97,0.04,,,0.02,weatherlink.com 1.10,2013-06-14 04:27:00,
2013-06-14 00:42:00,51.8,51.0,29.76,NE,39,0.0,0.0,97,0.05,,,0.04,weatherlink.com 1.10,2013-06-14 04:42:00,
2013-06-14 00:57:00,51.7,51.0,29.76,NE,39,0.0,0.0,97,0.05,,,0.05,weatherlink.com 1.10,2013-06-14 04:57:00,
2013-06-14 01:12:00,51.6,51.0,29.75,NE,39,0.0,0.0,97,0.05,,,0.06,weatherlink.com 1.10,2013-06-14 05:12:00,
2013-06-14 01:27:00,51.6,51.0,29.75,NE,52,0.0,0.0,97,0.05,,,0.07,weatherlink.com 1.10,2013-06-14 05:27:00,
2013-06-14 01:42:00,51.5,51.0,29.75,NE,52,0.0,0.0,97,0.06,,,0.10,weatherlink.com 1.10,2013-06-14 05:42:00,
2013-06-14 01:57:00,51.5,51.0,29.75,NE,51,0.0,0.0,97,0.07,,,0.12,weatherlink.com 1.10,2013-06-14 05:57:00,
2013-06-14 02:12:00,51.4,51.0,29.74,NE,51,0.0,0.0,97,0.08,,,0.14,weatherlink.com 1.10,2013-06-14 06:12:00,
2013-06-14 02:27:00,51.4,51.0,29.74,NE,51,0.0,0.0,97,0.08,,,0.15,weatherlink.com 1.10,2013-06-14 06:27:00,
2013-06-14 02:42:00,51.3,51.0,29.73,NE,43,0.0,0.0,97,0.07,,,0.17,weatherlink.com 1.10,2013-06-14 06:42:00,
2013-06-14 02:57:00,51.1,50.0,29.74,NE,43,0.0,0.0,97,0.08,,,0.20,weatherlink.com 1.10,2013-06-14 06:57:00,
2013-06-14 03:12:00,50.9,50.0,29.74,NE,42,0.0,0.0,97,0.08,,,0.22,weatherlink.com 1.10,2013-06-14 07:12:00,
2013-06-14 03:27:00,50.7,50.0,29.74,NE,42,0.0,0.0,97,0.09,,,0.25,weatherlink.com 1.10,2013-06-14 07:27:00,
2013-06-14 03:42:00,50.5,50.0,29.74,NE,41,0.0,0.0,97,0.09,,,0.27,weatherlink.com 1.10,2013-06-14 07:42:00,
2013-06-14 03:57:00,50.3,50.0,29.75,NE,36,0.0,0.0,97,0.08,,,0.28,weatherlink.com 1.10,2013-06-14 07:57:00,
2013-06-14 04:13:00,49.9,49.0,29.75,NNE,27,0.0,0.0,97,0.07,,,0.30,weatherlink.com 1.10,2013-06-14 08:13:00,
2013-06-14 04:27:00,49.9,49.0,29.75,NNE,27,0.0,0.0,97,0.05,,,0.30,weatherlink.com 1.10,2013-06-14 08:27:00,
2013-06-14 04:42:00,49.9,49.0,29.76,NNE,27,0.0,0.0,97,0.03,,,0.30,weatherlink.com 1.10,2013-06-14 08:42:00,
2013-06-14 04:57:00,49.9,49.0,29.76,NNE,27,0.0,0.0,97,0.01,,,0.30,weatherlink.com 1.10,2013-06-14 08:57:00,
2013-06-14 05:12:00,49.7,49.0,29.76,NNE,27,0.0,0.0,97,0.01,,,0.31,weatherlink.com 1.10,2013-06-14 09:12:00,
2013-06-14 05:27:00,50.0,49.0,29.75,NNE,27,0.0,0.0,97,0.01,,,0.31,weatherlink.com 1.10,2013-06-14 09:27:00,
2013-06-14 05:42:00,50.1,49.0,29.75,NNE,27,0.0,0.0,97,0.01,,,0.31,weatherlink.com 1.10,2013-06-14 09:42:00,
2013-06-14 05:57:00,50.1,49.0,29.74,NNE,27,0.0,0.0,97,0.01,,,0.31,weatherlink.com 1.10,2013-06-14 09:57:00,
2013-06-14 06:12:00,50.2,49.0,29.74,NNE,27,0.0,0.0,97,0.00,,,0.31,weatherlink.com 1.10,2013-06-14 10:12:00,
2013-06-14 06:27:00,50.3,50.0,29.75,NNE,27,0.0,0.0,97,0.00,,,0.31,weatherlink.com 1.10,2013-06-14 10:27:00,
2013-06-14 06:42:00,50.5,50.0,29.75,NNE,27,0.0,0.0,97,0.00,,,0.31,weatherlink.com 1.10,2013-06-14 10:42:00,
2013-06-14 06:57:00,50.8,50.0,29.76,NNE,27,0.0,0.0,97,0.00,,,0.31,weatherlink.com 1.10,2013-06-14 10:57:00,
2013-06-14 07:12:00,51.1,50.0,29.76,NNE,27,0.0,0.0,97,0.00,,,0.31,weatherlink.com 1.10,2013-06-14 11:12:00,
2013-06-14 07:27:00,51.7,51.0,29.76,NE,41,0.0,0.0,97,0.00,,,0.31,weatherlink.com 1.10,2013-06-14 11:27:00,
2013-06-14 07:42:00,51.8,51.0,29.77,NE,44,0.0,0.0,97,0.00,,,0.31,weatherlink.com 1.10,2013-06-14 11:42:00,
2013-06-14 07:57:00,52.4,52.0,29.77,NE,44,0.0,0.0,97,0.00,,,0.31,weatherlink.com 1.10,2013-06-14 11:57:00,
2013-06-14 08:12:00,52.8,52.0,29.77,ENE,58,0.0,0.0,96,0.00,,,0.31,weatherlink.com 1.10,2013-06-14 12:12:00,
2013-06-14 08:27:00,53.2,52.0,29.77,ENE,58,0.0,0.0,95,0.00,,,0.31,weatherlink.com 1.10,2013-06-14 12:27:00,
2013-06-14 08:42:00,53.9,53.0,29.78,East,79,0.0,0.0,95,0.00,,,0.31,weatherlink.com 1.10,2013-06-14 12:42:00,
2013-06-14 08:57:00,54.3,53.0,29.78,East,79,0.0,0.0,94,0.00,,,0.31,weatherlink.com 1.10,2013-06-14 12:57:00,
2013-06-14 09:12:00,55.4,54.0,29.78,East,79,0.0,0.0,93,0.00,,,0.31,weatherlink.com 1.10,2013-06-14 13:12:00,
2013-06-14 09:27:00,56.7,55.0,29.78,NNE,33,0.0,0.0,92,0.00,,,0.31,weatherlink.com 1.10,2013-06-14 13:27:00,
2013-06-14 09:42:00,57.5,55.0,29.78,NE,48,0.0,0.0,92,0.00,,,0.31,weatherlink.com 1.10,2013-06-14 13:42:00,
2013-06-14 09:58:00,58.1,55.0,29.77,NE,37,0.0,1.0,89,0.00,,,0.31,weatherlink.com 1.10,2013-06-14 13:58:00,
2013-06-14 10:13:00,58.8,54.0,29.77,SSE,160,3.0,4.0,84,0.00,,,0.31,weatherlink.com 1.10,2013-06-14 14:13:00,
2013-06-14 10:28:00,59.1,55.0,29.77,WNW,287,2.0,2.0,87,0.00,,,0.31,weatherlink.com 1.10,2013-06-14 14:28:00,
2013-06-14 10:43:00,59.4,55.0,29.77,NW,316,0.0,2.0,86,0.00,,,0.31,weatherlink.com 1.10,2013-06-14 14:43:00,
2013-06-14 10:58:00,59.8,55.0,29.77,WNW,289,0.0,3.0,85,0.00,,,0.31,weatherlink.com 1.10,2013-06-14 14:58:00,
2013-06-14 11:13:00,60.4,57.0,29.77,WSW,239,0.0,3.0,87,0.00,,,0.31,weatherlink.com 1.10,2013-06-14 15:13:00,
2013-06-14 11:28:00,60.8,57.0,29.78,WNW,285,0.0,2.0,87,0.00,,,0.31,weatherlink.com 1.10,2013-06-14 15:28:00,
2013-06-14 11:43:00,62.4,57.0,29.78,West,271,0.0,2.0,83,0.00,,,0.31,weatherlink.com 1.10,2013-06-14 15:43:00,
2013-06-14 11:58:00,63.7,57.0,29.78,WNW,300,2.0,4.0,80,0.00,,,0.31,weatherlink.com 1.10,2013-06-14 15:58:00,
2013-06-14 12:13:00,64.8,56.0,29.78,WNW,283,3.0,5.0,74,0.00,,,0.31,weatherlink.com 1.10,2013-06-14 16:13:00,
2013-06-14 12:28:00,65.6,54.0,29.78,NNE,32,2.0,3.0,67,0.00,,,0.31,weatherlink.com 1.10,2013-06-14 16:28:00,
2013-06-14 12:43:00,66.3,54.0,29.78,East,99,1.0,5.0,65,0.00,,,0.31,weatherlink.com 1.10,2013-06-14 16:43:00,
2013-06-14 12:58:00,66.7,55.0,29.78,WNW,284,0.0,2.0,66,0.00,,,0.31,weatherlink.com 1.10,2013-06-14 16:58:00,
2013-06-14 13:13:00,67.3,53.0,29.77,WNW,292,0.0,8.0,61,0.00,,,0.31,weatherlink.com 1.10,2013-06-14 17:13:00,
2013-06-14 13:28:00,68.0,55.0,29.77,North,1,0.0,4.0,64,0.00,,,0.31,weatherlink.com 1.10,2013-06-14 17:28:00,
2013-06-14 13:43:00,68.2,54.0,29.77,West,269,2.0,3.0,60,0.00,,,0.31,weatherlink.com 1.10,2013-06-14 17:43:00,
2013-06-14 13:58:00,68.3,50.0,29.77,North,353,0.0,7.0,53,0.00,,,0.31,weatherlink.com 1.10,2013-06-14 17:58:00,
2013-06-14 14:13:00,68.4,50.0,29.77,SE,134,7.0,7.0,52,0.00,,,0.31,weatherlink.com 1.10,2013-06-14 18:13:00,
2013-06-14 14:28:00,68.6,55.0,29.78,NNW,333,0.0,5.0,63,0.00,,,0.31,weatherlink.com 1.10,2013-06-14 18:28:00,
2013-06-14 14:43:00,69.2,53.0,29.77,East,86,1.0,3.0,56,0.00,,,0.31,weatherlink.com 1.10,2013-06-14 18:43:00,
2013-06-14 14:58:00,68.8,55.0,29.78,North,4,1.0,3.0,62,0.00,,,0.31,weatherlink.com 1.10,2013-06-14 18:58:00,
2013-06-14 15:13:00,68.3,57.0,29.77,West,277,0.0,2.0,68,0.00,,,0.31,weatherlink.com 1.10,2013-06-14 19:13:00,
2013-06-14 15:28:00,67.2,57.0,29.77,West,276,0.0,1.0,69,0.00,,,0.31,weatherlink.com 1.10,2013-06-14 19:28:00,
2013-06-14 15:43:00,68.3,53.0,29.77,ENE,65,1.0,2.0,58,0.00,,,0.31,weatherlink.com 1.10,2013-06-14 19:43:00,
2013-06-14 15:58:00,68.8,55.0,29.76,SE,138,2.0,2.0,62,0.00,,,0.31,weatherlink.com 1.10,2013-06-14 19:58:00,
2013-06-14 16:13:00,69.0,54.0,29.76,WSW,240,0.0,3.0,59,0.00,,,0.31,weatherlink.com 1.10,2013-06-14 20:13:00,
2013-06-14 16:28:00,69.3,50.0,29.76,East,98,0.0,2.0,51,0.00,,,0.31,weatherlink.com 1.10,2013-06-14 20:28:00,
2013-06-14 16:43:00,68.4,59.0,29.76,WNW,285,0.0,3.0,73,0.00,,,0.31,weatherlink.com 1.10,2013-06-14 20:43:00,
2013-06-14 16:58:00,66.9,58.0,29.76,SW,226,1.0,1.0,73,0.00,,,0.31,weatherlink.com 1.10,2013-06-14 20:58:00,
2013-06-14 17:13:00,67.6,60.0,29.76,West,276,0.0,1.0,77,0.00,,,0.31,weatherlink.com 1.10,2013-06-14 21:13:00,
2013-06-14 17:28:00,67.1,58.0,29.76,West,260,0.0,1.0,73,0.00,,,0.31,weatherlink.com 1.10,2013-06-14 21:28:00,
2013-06-14 17:44:00,65.7,58.0,29.76,West,270,0.0,1.0,76,0.00,,,0.31,weatherlink.com 1.10,2013-06-14 21:44:00,
2013-06-14 17:59:00,65.9,59.0,29.76,SSW,212,0.0,1.0,79,0.00,,,0.31,weatherlink.com 1.10,2013-06-14 21:59:00,
2013-06-14 18:14:00,65.6,60.0,29.76,West,276,0.0,1.0,81,0.00,,,0.31,weatherlink.com 1.10,2013-06-14 22:14:00,
2013-06-14 18:29:00,65.1,59.0,29.77,WNW,300,0.0,1.0,80,0.00,,,0.31,weatherlink.com 1.10,2013-06-14 22:29:00,
2013-06-14 18:44:00,64.3,58.0,29.77,WNW,300,0.0,0.0,81,0.00,,,0.31,weatherlink.com 1.10,2013-06-14 22:44:00,
2013-06-14 18:59:00,63.9,60.0,29.77,WNW,300,1.0,1.0,86,0.00,,,0.31,weatherlink.com 1.10,2013-06-14 22:59:00,
2013-06-14 19:14:00,62.7,58.0,29.78,WNW,300,0.0,1.0,84,0.00,,,0.31,weatherlink.com 1.10,2013-06-14 23:14:00,
2013-06-14 19:29:00,61.9,58.0,29.78,NW,325,0.0,1.0,87,0.00,,,0.31,weatherlink.com 1.10,2013-06-14 23:29:00,
2013-06-14 19:44:00,60.8,57.0,29.79,NW,326,0.0,1.0,86,0.00,,,0.31,weatherlink.com 1.10,2013-06-14 23:44:00,
2013-06-14 19:59:00,59.9,56.0,29.79,NW,326,0.0,1.0,86,0.00,,,0.31,weatherlink.com 1.10,2013-06-14 23:59:00,
2013-06-14 20:14:00,59.0,55.0,29.80,NW,326,0.0,1.0,87,0.00,,,0.31,weatherlink.com 1.10,2013-06-15 00:14:00,
2013-06-14 20:29:00,58.4,55.0,29.80,NNW,328,0.0,1.0,87,0.00,,,0.31,weatherlink.com 1.10,2013-06-15 00:29:00,
2013-06-14 20:44:00,57.7,54.0,29.81,NNW,328,0.0,1.0,88,0.00,,,0.31,weatherlink.com 1.10,2013-06-15 00:44:00,
2013-06-14 20:59:00,57.0,54.0,29.81,NNW,328,0.0,1.0,90,0.00,,,0.31,weatherlink.com 1.10,2013-06-15 00:59:00,
2013-06-14 21:14:00,56.3,54.0,29.82,NNW,328,0.0,0.0,91,0.00,,,0.31,weatherlink.com 1.10,2013-06-15 01:14:00,
2013-06-14 21:29:00,55.8,54.0,29.82,NNW,328,0.0,0.0,92,0.00,,,0.31,weatherlink.com 1.10,2013-06-15 01:29:00,
2013-06-14 21:44:00,55.4,54.0,29.83,NNW,328,0.0,0.0,93,0.00,,,0.31,weatherlink.com 1.10,2013-06-15 01:44:00,
2013-06-14 21:59:00,54.9,53.0,29.84,NNW,328,0.0,0.0,93,0.00,,,0.31,weatherlink.com 1.10,2013-06-15 01:59:00,
2013-06-14 22:14:00,54.7,53.0,29.84,NNW,328,0.0,0.0,94,0.00,,,0.31,weatherlink.com 1.10,2013-06-15 02:14:00,
2013-06-14 22:29:00,54.3,53.0,29.84,NNW,328,0.0,0.0,94,0.00,,,0.31,weatherlink.com 1.10,2013-06-15 02:29:00,
2013-06-14 22:44:00,54.1,53.0,29.84,NW,326,0.0,0.0,94,0.00,,,0.31,weatherlink.com 1.10,2013-06-15 02:44:00,
2013-06-14 22:59:00,53.8,52.0,29.84,NW,326,0.0,0.0,95,0.00,,,0.31,weatherlink.com 1.10,2013-06-15 02:59:00,
2013-06-14 23:14:00,53.7,52.0,29.84,NW,326,0.0,0.0,95,0.00,,,0.31,weatherlink.com 1.10,2013-06-15 03:14:00,
2013-06-14 23:44:00,53.8,52.0,29.85,NW,326,0.0,0.0,95,0.00,,,0.31,weatherlink.com 1.10,2013-06-15 03:44:00,
2013-06-14 23:59:00,54.2,53.0,29.86,NNW,335,0.0,0.0,96,0.00,,,0.00,weatherlink.com 1.10,2013-06-15 03:59:00,